sensor_id;sensor_type;location;lat;lon;timestamp;P1;durP1;ratioP1;P2;durP2;ratioP2
22539;SDS011;11436;50.860;4.334;2022-10-14T00:00:36;15.02;;;11.52;;
22539;SDS011;11436;50.860;4.334;2022-10-14T00:03:02;13.40;;;11.70;;
22539;SDS011;11436;50.860;4.334;2022-10-14T00:05:28;12.85;;;11.43;;
22539;SDS011;11436;50.860;4.334;2022-10-14T00:07:54;14.38;;;12.30;;
22539;SDS011;11436;50.860;4.334;2022-10-14T00:10:19;12.95;;;11.65;;
22539;SDS011;11436;50.860;4.334;2022-10-14T00:12:46;15.40;;;12.82;;
22539;SDS011;11436;50.860;4.334;2022-10-14T00:15:12;14.48;;;11.63;;
22539;SDS011;11436;50.860;4.334;2022-10-14T00:17:38;15.68;;;13.13;;
22539;SDS011;11436;50.860;4.334;2022-10-14T00:20:04;17.05;;;12.82;;
22539;SDS011;11436;50.860;4.334;2022-10-14T00:22:30;14.93;;;12.35;;
22539;SDS011;11436;50.860;4.334;2022-10-14T00:24:56;14.43;;;12.63;;
22539;SDS011;11436;50.860;4.334;2022-10-14T00:27:22;14.25;;;12.75;;
22539;SDS011;11436;50.860;4.334;2022-10-14T00:29:48;17.38;;;12.70;;
22539;SDS011;11436;50.860;4.334;2022-10-14T00:32:13;15.23;;;11.45;;
22539;SDS011;11436;50.860;4.334;2022-10-14T00:34:39;13.13;;;11.25;;
22539;SDS011;11436;50.860;4.334;2022-10-14T00:37:05;12.95;;;11.60;;
22539;SDS011;11436;50.860;4.334;2022-10-14T00:39:31;14.35;;;12.20;;
22539;SDS011;11436;50.860;4.334;2022-10-14T00:41:57;13.23;;;11.80;;
22539;SDS011;11436;50.860;4.334;2022-10-14T00:46:48;14.50;;;11.73;;
22539;SDS011;11436;50.860;4.334;2022-10-14T00:49:20;12.90;;;11.60;;
22539;SDS011;11436;50.860;4.334;2022-10-14T00:51:57;15.18;;;12.02;;
22539;SDS011;11436;50.860;4.334;2022-10-14T00:54:33;12.90;;;11.50;;
22539;SDS011;11436;50.860;4.334;2022-10-14T00:57:19;13.03;;;11.50;;
22539;SDS011;11436;50.860;4.334;2022-10-14T00:59:46;13.82;;;10.63;;
22539;SDS011;11436;50.860;4.334;2022-10-14T01:02:12;14.50;;;11.38;;
22539;SDS011;11436;50.860;4.334;2022-10-14T01:04:38;13.40;;;11.48;;
22539;SDS011;11436;50.860;4.334;2022-10-14T01:07:24;15.10;;;11.40;;
22539;SDS011;11436;50.860;4.334;2022-10-14T01:10:03;14.80;;;10.63;;
22539;SDS011;11436;50.860;4.334;2022-10-14T01:12:44;15.07;;;11.68;;
22539;SDS011;11436;50.860;4.334;2022-10-14T01:15:30;12.02;;;10.73;;
22539;SDS011;11436;50.860;4.334;2022-10-14T01:18:13;14.32;;;11.02;;
22539;SDS011;11436;50.860;4.334;2022-10-14T01:21:07;14.00;;;10.63;;
22539;SDS011;11436;50.860;4.334;2022-10-14T01:26:52;13.35;;;11.05;;
22539;SDS011;11436;50.860;4.334;2022-10-14T01:37:51;13.30;;;11.10;;
22539;SDS011;11436;50.860;4.334;2022-10-14T01:40:55;15.10;;;12.43;;
22539;SDS011;11436;50.860;4.334;2022-10-14T01:43:34;14.02;;;10.93;;
22539;SDS011;11436;50.860;4.334;2022-10-14T01:46:02;14.65;;;11.25;;
22539;SDS011;11436;50.860;4.334;2022-10-14T01:48:32;17.98;;;12.02;;
22539;SDS011;11436;50.860;4.334;2022-10-14T01:51:02;13.35;;;11.15;;
22539;SDS011;11436;50.860;4.334;2022-10-14T01:53:35;13.77;;;11.00;;
22539;SDS011;11436;50.860;4.334;2022-10-14T01:56:04;16.27;;;12.00;;
22539;SDS011;11436;50.860;4.334;2022-10-14T01:58:34;14.98;;;12.02;;
22539;SDS011;11436;50.860;4.334;2022-10-14T02:01:02;15.82;;;12.40;;
22539;SDS011;11436;50.860;4.334;2022-10-14T02:04:02;15.45;;;12.48;;
22539;SDS011;11436;50.860;4.334;2022-10-14T02:06:28;13.73;;;11.27;;
22539;SDS011;11436;50.860;4.334;2022-10-14T02:17:56;18.23;;;13.60;;
22539;SDS011;11436;50.860;4.334;2022-10-14T02:20:33;18.73;;;13.50;;
22539;SDS011;11436;50.860;4.334;2022-10-14T02:23:10;18.10;;;12.85;;
22539;SDS011;11436;50.860;4.334;2022-10-14T02:25:43;17.33;;;13.50;;
22539;SDS011;11436;50.860;4.334;2022-10-14T02:28:15;20.63;;;14.50;;
22539;SDS011;11436;50.860;4.334;2022-10-14T02:33:25;18.48;;;13.95;;
22539;SDS011;11436;50.860;4.334;2022-10-14T02:35:59;16.88;;;13.40;;
22539;SDS011;11436;50.860;4.334;2022-10-14T02:38:28;17.00;;;13.45;;
22539;SDS011;11436;50.860;4.334;2022-10-14T02:40:59;16.77;;;13.18;;
22539;SDS011;11436;50.860;4.334;2022-10-14T02:43:30;17.00;;;12.57;;
22539;SDS011;11436;50.860;4.334;2022-10-14T02:45:57;15.57;;;12.95;;
22539;SDS011;11436;50.860;4.334;2022-10-14T02:48:27;18.38;;;13.10;;
22539;SDS011;11436;50.860;4.334;2022-10-14T02:50:57;18.35;;;13.02;;
22539;SDS011;11436;50.860;4.334;2022-10-14T02:53:22;17.13;;;12.95;;
22539;SDS011;11436;50.860;4.334;2022-10-14T02:55:48;16.65;;;13.13;;
22539;SDS011;11436;50.860;4.334;2022-10-14T02:58:18;18.27;;;13.07;;
22539;SDS011;11436;50.860;4.334;2022-10-14T03:00:47;14.68;;;12.55;;
22539;SDS011;11436;50.860;4.334;2022-10-14T03:03:17;17.80;;;12.57;;
22539;SDS011;11436;50.860;4.334;2022-10-14T03:05:46;19.45;;;12.48;;
22539;SDS011;11436;50.860;4.334;2022-10-14T03:08:20;14.50;;;11.97;;
22539;SDS011;11436;50.860;4.334;2022-10-14T03:10:49;18.50;;;12.02;;
22539;SDS011;11436;50.860;4.334;2022-10-14T03:13:15;17.67;;;12.13;;
22539;SDS011;11436;50.860;4.334;2022-10-14T03:15:47;17.73;;;12.30;;
22539;SDS011;11436;50.860;4.334;2022-10-14T03:18:18;21.55;;;13.73;;
22539;SDS011;11436;50.860;4.334;2022-10-14T03:20:48;20.50;;;13.45;;
22539;SDS011;11436;50.860;4.334;2022-10-14T03:23:17;16.98;;;13.20;;
22539;SDS011;11436;50.860;4.334;2022-10-14T03:25:49;21.42;;;13.98;;
22539;SDS011;11436;50.860;4.334;2022-10-14T03:28:19;20.50;;;13.80;;
22539;SDS011;11436;50.860;4.334;2022-10-14T03:30:50;20.10;;;14.00;;
22539;SDS011;11436;50.860;4.334;2022-10-14T03:33:16;18.50;;;13.60;;
22539;SDS011;11436;50.860;4.334;2022-10-14T03:35:42;17.67;;;13.93;;
22539;SDS011;11436;50.860;4.334;2022-10-14T03:38:07;15.90;;;13.05;;
22539;SDS011;11436;50.860;4.334;2022-10-14T03:40:33;17.65;;;13.70;;
22539;SDS011;11436;50.860;4.334;2022-10-14T03:43:05;16.27;;;13.07;;
22539;SDS011;11436;50.860;4.334;2022-10-14T03:45:30;17.42;;;12.15;;
22539;SDS011;11436;50.860;4.334;2022-10-14T03:47:56;16.27;;;11.88;;
22539;SDS011;11436;50.860;4.334;2022-10-14T03:50:22;16.00;;;11.60;;
22539;SDS011;11436;50.860;4.334;2022-10-14T03:52:47;17.45;;;12.43;;
22539;SDS011;11436;50.860;4.334;2022-10-14T03:55:13;15.00;;;11.20;;
22539;SDS011;11436;50.860;4.334;2022-10-14T03:57:39;18.35;;;11.98;;
22539;SDS011;11436;50.860;4.334;2022-10-14T04:00:05;20.13;;;13.05;;
22539;SDS011;11436;50.860;4.334;2022-10-14T04:02:32;17.30;;;12.90;;
22539;SDS011;11436;50.860;4.334;2022-10-14T04:04:57;18.38;;;12.30;;
22539;SDS011;11436;50.860;4.334;2022-10-14T04:07:23;19.38;;;12.90;;
22539;SDS011;11436;50.860;4.334;2022-10-14T04:09:49;18.77;;;12.75;;
22539;SDS011;11436;50.860;4.334;2022-10-14T04:12:14;20.35;;;12.48;;
22539;SDS011;11436;50.860;4.334;2022-10-14T04:14:40;20.52;;;13.50;;
22539;SDS011;11436;50.860;4.334;2022-10-14T04:17:06;20.75;;;12.68;;
22539;SDS011;11436;50.860;4.334;2022-10-14T04:19:32;24.48;;;14.23;;
22539;SDS011;11436;50.860;4.334;2022-10-14T04:21:58;23.60;;;14.13;;
22539;SDS011;11436;50.860;4.334;2022-10-14T04:24:23;21.75;;;13.85;;
22539;SDS011;11436;50.860;4.334;2022-10-14T04:26:52;21.92;;;13.88;;
22539;SDS011;11436;50.860;4.334;2022-10-14T04:29:21;22.60;;;14.48;;
22539;SDS011;11436;50.860;4.334;2022-10-14T04:31:50;22.25;;;14.48;;
22539;SDS011;11436;50.860;4.334;2022-10-14T04:34:15;23.73;;;14.57;;
22539;SDS011;11436;50.860;4.334;2022-10-14T04:36:51;24.90;;;15.27;;
22539;SDS011;11436;50.860;4.334;2022-10-14T04:39:17;20.65;;;14.00;;
22539;SDS011;11436;50.860;4.334;2022-10-14T04:41:55;20.45;;;14.40;;
22539;SDS011;11436;50.860;4.334;2022-10-14T04:44:21;23.83;;;15.57;;
22539;SDS011;11436;50.860;4.334;2022-10-14T04:46:49;26.13;;;15.45;;
22539;SDS011;11436;50.860;4.334;2022-10-14T04:49:18;22.08;;;15.10;;
22539;SDS011;11436;50.860;4.334;2022-10-14T04:51:46;24.58;;;17.60;;
22539;SDS011;11436;50.860;4.334;2022-10-14T04:54:16;24.30;;;16.13;;
22539;SDS011;11436;50.860;4.334;2022-10-14T04:56:41;24.30;;;15.25;;
22539;SDS011;11436;50.860;4.334;2022-10-14T04:59:11;25.88;;;16.00;;
22539;SDS011;11436;50.860;4.334;2022-10-14T05:01:38;21.20;;;14.60;;
22539;SDS011;11436;50.860;4.334;2022-10-14T05:04:11;28.52;;;15.43;;
22539;SDS011;11436;50.860;4.334;2022-10-14T05:06:36;22.35;;;14.80;;
22539;SDS011;11436;50.860;4.334;2022-10-14T05:09:03;22.90;;;14.65;;
22539;SDS011;11436;50.860;4.334;2022-10-14T05:11:36;26.48;;;14.77;;
22539;SDS011;11436;50.860;4.334;2022-10-14T05:14:18;22.42;;;13.63;;
22539;SDS011;11436;50.860;4.334;2022-10-14T05:16:46;24.17;;;14.50;;
22539;SDS011;11436;50.860;4.334;2022-10-14T05:19:15;25.30;;;14.68;;
22539;SDS011;11436;50.860;4.334;2022-10-14T05:21:51;23.20;;;14.55;;
22539;SDS011;11436;50.860;4.334;2022-10-14T05:24:20;25.15;;;14.43;;
22539;SDS011;11436;50.860;4.334;2022-10-14T05:26:46;22.88;;;13.60;;
22539;SDS011;11436;50.860;4.334;2022-10-14T05:29:15;25.70;;;13.30;;
22539;SDS011;11436;50.860;4.334;2022-10-14T05:31:46;29.75;;;18.08;;
22539;SDS011;11436;50.860;4.334;2022-10-14T05:34:12;23.60;;;14.23;;
22539;SDS011;11436;50.860;4.334;2022-10-14T05:36:37;23.73;;;14.10;;
22539;SDS011;11436;50.860;4.334;2022-10-14T05:39:07;25.45;;;14.40;;
22539;SDS011;11436;50.860;4.334;2022-10-14T05:41:32;27.02;;;14.88;;
22539;SDS011;11436;50.860;4.334;2022-10-14T05:43:58;25.63;;;16.00;;
22539;SDS011;11436;50.860;4.334;2022-10-14T05:46:24;24.58;;;14.07;;
22539;SDS011;11436;50.860;4.334;2022-10-14T05:48:50;25.70;;;14.95;;
22539;SDS011;11436;50.860;4.334;2022-10-14T05:51:15;25.02;;;14.95;;
22539;SDS011;11436;50.860;4.334;2022-10-14T05:53:45;26.30;;;14.50;;
22539;SDS011;11436;50.860;4.334;2022-10-14T05:56:11;24.88;;;14.38;;
22539;SDS011;11436;50.860;4.334;2022-10-14T05:58:37;22.00;;;13.55;;
22539;SDS011;11436;50.860;4.334;2022-10-14T06:01:04;30.27;;;14.60;;
22539;SDS011;11436;50.860;4.334;2022-10-14T06:03:32;21.63;;;13.05;;
22539;SDS011;11436;50.860;4.334;2022-10-14T06:05:58;23.00;;;13.85;;
22539;SDS011;11436;50.860;4.334;2022-10-14T06:08:24;22.65;;;13.73;;
22539;SDS011;11436;50.860;4.334;2022-10-14T06:10:51;25.77;;;14.85;;
22539;SDS011;11436;50.860;4.334;2022-10-14T06:13:17;24.45;;;14.43;;
22539;SDS011;11436;50.860;4.334;2022-10-14T06:15:43;25.08;;;14.50;;
22539;SDS011;11436;50.860;4.334;2022-10-14T06:18:09;22.40;;;14.77;;
22539;SDS011;11436;50.860;4.334;2022-10-14T06:20:35;24.23;;;13.65;;
22539;SDS011;11436;50.860;4.334;2022-10-14T06:23:01;21.65;;;13.15;;
22539;SDS011;11436;50.860;4.334;2022-10-14T06:25:27;22.88;;;13.73;;
22539;SDS011;11436;50.860;4.334;2022-10-14T06:27:54;25.50;;;14.30;;
22539;SDS011;11436;50.860;4.334;2022-10-14T06:30:20;23.23;;;13.50;;
22539;SDS011;11436;50.860;4.334;2022-10-14T06:32:46;22.60;;;14.65;;
22539;SDS011;11436;50.860;4.334;2022-10-14T06:35:11;22.25;;;14.48;;
22539;SDS011;11436;50.860;4.334;2022-10-14T06:37:37;26.40;;;14.88;;
22539;SDS011;11436;50.860;4.334;2022-10-14T06:40:07;24.90;;;14.68;;
22539;SDS011;11436;50.860;4.334;2022-10-14T06:42:34;25.73;;;14.48;;
22539;SDS011;11436;50.860;4.334;2022-10-14T06:45:05;21.05;;;13.70;;
22539;SDS011;11436;50.860;4.334;2022-10-14T06:47:33;24.85;;;15.18;;
22539;SDS011;11436;50.860;4.334;2022-10-14T06:49:59;23.20;;;14.63;;
22539;SDS011;11436;50.860;4.334;2022-10-14T06:52:25;21.88;;;14.15;;
22539;SDS011;11436;50.860;4.334;2022-10-14T06:54:51;26.73;;;15.63;;
22539;SDS011;11436;50.860;4.334;2022-10-14T06:57:17;25.95;;;15.43;;
22539;SDS011;11436;50.860;4.334;2022-10-14T06:59:43;23.25;;;14.52;;
22539;SDS011;11436;50.860;4.334;2022-10-14T07:02:09;24.67;;;15.80;;
22539;SDS011;11436;50.860;4.334;2022-10-14T07:04:39;24.38;;;14.73;;
22539;SDS011;11436;50.860;4.334;2022-10-14T07:07:06;22.10;;;14.77;;
22539;SDS011;11436;50.860;4.334;2022-10-14T07:09:32;25.17;;;14.40;;
22539;SDS011;11436;50.860;4.334;2022-10-14T07:11:58;21.35;;;13.52;;
22539;SDS011;11436;50.860;4.334;2022-10-14T07:14:25;20.05;;;13.35;;
22539;SDS011;11436;50.860;4.334;2022-10-14T07:16:51;22.17;;;12.90;;
22539;SDS011;11436;50.860;4.334;2022-10-14T07:19:17;23.73;;;13.70;;
22539;SDS011;11436;50.860;4.334;2022-10-14T07:21:43;22.08;;;12.65;;
22539;SDS011;11436;50.860;4.334;2022-10-14T07:24:12;19.05;;;13.00;;
22539;SDS011;11436;50.860;4.334;2022-10-14T07:26:38;18.23;;;12.48;;
22539;SDS011;11436;50.860;4.334;2022-10-14T07:29:04;17.00;;;11.77;;
22539;SDS011;11436;50.860;4.334;2022-10-14T07:31:30;17.33;;;11.50;;
22539;SDS011;11436;50.860;4.334;2022-10-14T07:33:59;17.55;;;12.45;;
22539;SDS011;11436;50.860;4.334;2022-10-14T07:36:26;17.92;;;12.55;;
22539;SDS011;11436;50.860;4.334;2022-10-14T07:39:01;18.13;;;12.52;;
22539;SDS011;11436;50.860;4.334;2022-10-14T07:41:31;16.17;;;11.05;;
22539;SDS011;11436;50.860;4.334;2022-10-14T07:44:02;17.25;;;12.23;;
22539;SDS011;11436;50.860;4.334;2022-10-14T07:46:34;23.02;;;17.85;;
22539;SDS011;11436;50.860;4.334;2022-10-14T07:49:07;14.32;;;10.77;;
22539;SDS011;11436;50.860;4.334;2022-10-14T07:51:36;14.00;;;10.80;;
22539;SDS011;11436;50.860;4.334;2022-10-14T07:54:03;15.45;;;10.88;;
22539;SDS011;11436;50.860;4.334;2022-10-14T07:56:34;18.35;;;11.18;;
22539;SDS011;11436;50.860;4.334;2022-10-14T07:59:00;13.90;;;10.23;;
22539;SDS011;11436;50.860;4.334;2022-10-14T08:01:26;16.55;;;11.10;;
22539;SDS011;11436;50.860;4.334;2022-10-14T08:03:52;15.88;;;9.38;;
22539;SDS011;11436;50.860;4.334;2022-10-14T08:06:18;11.52;;;8.98;;
22539;SDS011;11436;50.860;4.334;2022-10-14T08:08:44;10.48;;;8.70;;
22539;SDS011;11436;50.860;4.334;2022-10-14T08:11:11;10.95;;;8.93;;
22539;SDS011;11436;50.860;4.334;2022-10-14T08:13:40;12.77;;;9.30;;
22539;SDS011;11436;50.860;4.334;2022-10-14T08:16:13;12.70;;;9.55;;
22539;SDS011;11436;50.860;4.334;2022-10-14T08:18:44;11.07;;;8.20;;
22539;SDS011;11436;50.860;4.334;2022-10-14T08:21:11;10.52;;;7.93;;
22539;SDS011;11436;50.860;4.334;2022-10-14T08:23:38;8.60;;;7.20;;
22539;SDS011;11436;50.860;4.334;2022-10-14T08:26:09;10.52;;;7.45;;
22539;SDS011;11436;50.860;4.334;2022-10-14T08:28:41;9.48;;;7.45;;
22539;SDS011;11436;50.860;4.334;2022-10-14T08:31:07;10.27;;;6.88;;
22539;SDS011;11436;50.860;4.334;2022-10-14T08:33:33;10.45;;;7.22;;
22539;SDS011;11436;50.860;4.334;2022-10-14T08:35:59;8.15;;;6.70;;
22539;SDS011;11436;50.860;4.334;2022-10-14T08:38:28;8.75;;;7.22;;
22539;SDS011;11436;50.860;4.334;2022-10-14T08:43:31;10.45;;;6.68;;
22539;SDS011;11436;50.860;4.334;2022-10-14T08:46:18;8.52;;;6.00;;
22539;SDS011;11436;50.860;4.334;2022-10-14T08:48:49;10.30;;;7.43;;
22539;SDS011;11436;50.860;4.334;2022-10-14T08:51:20;8.70;;;5.70;;
22539;SDS011;11436;50.860;4.334;2022-10-14T08:53:50;8.10;;;6.85;;
22539;SDS011;11436;50.860;4.334;2022-10-14T08:56:22;9.60;;;7.25;;
22539;SDS011;11436;50.860;4.334;2022-10-14T08:58:49;11.80;;;6.47;;
22539;SDS011;11436;50.860;4.334;2022-10-14T09:03:49;10.55;;;5.28;;
22539;SDS011;11436;50.860;4.334;2022-10-14T09:06:23;7.50;;;5.55;;
22539;SDS011;11436;50.860;4.334;2022-10-14T09:08:54;11.60;;;7.03;;
22539;SDS011;11436;50.860;4.334;2022-10-14T09:12:00;18.20;;;11.25;;
22539;SDS011;11436;50.860;4.334;2022-10-14T09:14:34;7.70;;;5.38;;
22539;SDS011;11436;50.860;4.334;2022-10-14T09:17:15;7.90;;;5.63;;
22539;SDS011;11436;50.860;4.334;2022-10-14T09:22:17;6.75;;;4.68;;
22539;SDS011;11436;50.860;4.334;2022-10-14T09:24:43;9.85;;;5.00;;
22539;SDS011;11436;50.860;4.334;2022-10-14T09:27:16;10.50;;;6.05;;
22539;SDS011;11436;50.860;4.334;2022-10-14T09:30:01;7.47;;;5.57;;
22539;SDS011;11436;50.860;4.334;2022-10-14T09:32:39;8.52;;;4.70;;
22539;SDS011;11436;50.860;4.334;2022-10-14T09:37:53;9.18;;;5.63;;
22539;SDS011;11436;50.860;4.334;2022-10-14T09:40:33;8.30;;;5.15;;
22539;SDS011;11436;50.860;4.334;2022-10-14T09:51:02;6.90;;;4.43;;
22539;SDS011;11436;50.860;4.334;2022-10-14T09:53:42;4.75;;;3.70;;
22539;SDS011;11436;50.860;4.334;2022-10-14T09:56:12;5.57;;;3.40;;
22539;SDS011;11436;50.860;4.334;2022-10-14T09:58:49;8.35;;;4.15;;
22539;SDS011;11436;50.860;4.334;2022-10-14T10:01:22;6.75;;;4.32;;
22539;SDS011;11436;50.860;4.334;2022-10-14T10:03:49;4.27;;;3.70;;
22539;SDS011;11436;50.860;4.334;2022-10-14T10:06:18;4.47;;;3.20;;
22539;SDS011;11436;50.860;4.334;2022-10-14T10:11:25;4.22;;;3.22;;
22539;SDS011;11436;50.860;4.334;2022-10-14T10:13:57;4.38;;;3.50;;
22539;SDS011;11436;50.860;4.334;2022-10-14T10:16:25;5.90;;;3.65;;
22539;SDS011;11436;50.860;4.334;2022-10-14T10:18:55;4.53;;;3.20;;
22539;SDS011;11436;50.860;4.334;2022-10-14T10:21:28;4.75;;;4.30;;
22539;SDS011;11436;50.860;4.334;2022-10-14T10:23:58;5.15;;;4.65;;
22539;SDS011;11436;50.860;4.334;2022-10-14T10:26:27;7.88;;;5.32;;
22539;SDS011;11436;50.860;4.334;2022-10-14T10:28:58;6.03;;;3.87;;
22539;SDS011;11436;50.860;4.334;2022-10-14T10:33:59;4.32;;;3.83;;
22539;SDS011;11436;50.860;4.334;2022-10-14T10:37:21;5.10;;;4.25;;
22539;SDS011;11436;50.860;4.334;2022-10-14T10:42:22;5.40;;;4.35;;
22539;SDS011;11436;50.860;4.334;2022-10-14T10:56:10;9.32;;;6.03;;
22539;SDS011;11436;50.860;4.334;2022-10-14T10:59:16;7.93;;;5.53;;
22539;SDS011;11436;50.860;4.334;2022-10-14T11:16:33;9.77;;;8.73;;
22539;SDS011;11436;50.860;4.334;2022-10-14T11:19:16;9.98;;;8.75;;
22539;SDS011;11436;50.860;4.334;2022-10-14T11:35:16;15.07;;;9.82;;
22539;SDS011;11436;50.860;4.334;2022-10-14T11:38:10;7.55;;;6.68;;
22539;SDS011;11436;50.860;4.334;2022-10-14T11:44:41;7.95;;;7.18;;
22539;SDS011;11436;50.860;4.334;2022-10-14T11:46:49;7.82;;;6.68;;
22539;SDS011;11436;50.860;4.334;2022-10-14T11:49:35;7.10;;;6.43;;
22539;SDS011;11436;50.860;4.334;2022-10-14T11:52:29;6.97;;;6.22;;
22539;SDS011;11436;50.860;4.334;2022-10-14T11:55:09;7.85;;;6.90;;
22539;SDS011;11436;50.860;4.334;2022-10-14T11:57:51;13.57;;;7.35;;
22539;SDS011;11436;50.860;4.334;2022-10-14T12:00:22;9.20;;;6.97;;
22539;SDS011;11436;50.860;4.334;2022-10-14T12:03:16;10.87;;;8.10;;
22539;SDS011;11436;50.860;4.334;2022-10-14T12:06:05;9.05;;;8.15;;
22539;SDS011;11436;50.860;4.334;2022-10-14T12:08:54;8.52;;;7.38;;
22539;SDS011;11436;50.860;4.334;2022-10-14T12:14:13;8.70;;;7.80;;
22539;SDS011;11436;50.860;4.334;2022-10-14T12:16:50;10.48;;;7.82;;
22539;SDS011;11436;50.860;4.334;2022-10-14T12:19:24;9.40;;;8.40;;
22539;SDS011;11436;50.860;4.334;2022-10-14T12:24:42;11.15;;;9.18;;
22539;SDS011;11436;50.860;4.334;2022-10-14T12:29:40;10.77;;;9.68;;
22539;SDS011;11436;50.860;4.334;2022-10-14T12:32:16;11.10;;;9.18;;
22539;SDS011;11436;50.860;4.334;2022-10-14T12:34:44;14.18;;;10.13;;
22539;SDS011;11436;50.860;4.334;2022-10-14T12:42:35;12.57;;;9.65;;
22539;SDS011;11436;50.860;4.334;2022-10-14T12:45:19;10.35;;;9.38;;
22539;SDS011;11436;50.860;4.334;2022-10-14T12:47:59;10.40;;;9.27;;
22539;SDS011;11436;50.860;4.334;2022-10-14T12:50:38;10.63;;;9.50;;
22539;SDS011;11436;50.860;4.334;2022-10-14T12:53:18;10.40;;;8.82;;
22539;SDS011;11436;50.860;4.334;2022-10-14T12:55:55;13.45;;;7.88;;
22539;SDS011;11436;50.860;4.334;2022-10-14T13:01:00;8.57;;;7.63;;
22539;SDS011;11436;50.860;4.334;2022-10-14T13:03:31;9.30;;;8.35;;
22539;SDS011;11436;50.860;4.334;2022-10-14T13:14:25;9.63;;;8.63;;
22539;SDS011;11436;50.860;4.334;2022-10-14T13:21:59;10.15;;;8.10;;
22539;SDS011;11436;50.860;4.334;2022-10-14T13:30:02;10.98;;;6.85;;
22539;SDS011;11436;50.860;4.334;2022-10-14T13:32:39;7.13;;;6.35;;
22539;SDS011;11436;50.860;4.334;2022-10-14T13:38:03;7.50;;;6.75;;
22539;SDS011;11436;50.860;4.334;2022-10-14T13:43:01;6.95;;;6.28;;
22539;SDS011;11436;50.860;4.334;2022-10-14T13:45:35;7.13;;;6.43;;
22539;SDS011;11436;50.860;4.334;2022-10-14T13:48:13;10.45;;;5.75;;
22539;SDS011;11436;50.860;4.334;2022-10-14T13:50:45;6.80;;;6.13;;
22539;SDS011;11436;50.860;4.334;2022-10-14T13:53:19;6.93;;;5.97;;
22539;SDS011;11436;50.860;4.334;2022-10-14T13:55:52;6.32;;;5.13;;
22539;SDS011;11436;50.860;4.334;2022-10-14T13:58:19;6.28;;;5.20;;
22539;SDS011;11436;50.860;4.334;2022-10-14T14:03:33;8.05;;;6.90;;
22539;SDS011;11436;50.860;4.334;2022-10-14T14:06:12;7.45;;;5.68;;
22539;SDS011;11436;50.860;4.334;2022-10-14T14:08:52;8.35;;;5.85;;
22539;SDS011;11436;50.860;4.334;2022-10-14T14:11:30;5.97;;;5.30;;
22539;SDS011;11436;50.860;4.334;2022-10-14T14:14:04;9.90;;;6.13;;
22539;SDS011;11436;50.860;4.334;2022-10-14T14:16:37;7.82;;;5.40;;
22539;SDS011;11436;50.860;4.334;2022-10-14T14:19:06;6.00;;;5.40;;
22539;SDS011;11436;50.860;4.334;2022-10-14T14:24:48;7.57;;;5.82;;
22539;SDS011;11436;50.860;4.334;2022-10-14T14:27:24;7.10;;;5.82;;
22539;SDS011;11436;50.860;4.334;2022-10-14T14:29:51;6.78;;;5.45;;
22539;SDS011;11436;50.860;4.334;2022-10-14T14:32:28;5.75;;;5.15;;
22539;SDS011;11436;50.860;4.334;2022-10-14T14:34:57;5.25;;;4.75;;
22539;SDS011;11436;50.860;4.334;2022-10-14T14:37:24;5.90;;;4.55;;
22539;SDS011;11436;50.860;4.334;2022-10-14T14:40:05;5.00;;;3.88;;
22539;SDS011;11436;50.860;4.334;2022-10-14T14:42:42;3.42;;;2.90;;
22539;SDS011;11436;50.860;4.334;2022-10-14T14:47:44;6.53;;;3.53;;
22539;SDS011;11436;50.860;4.334;2022-10-14T14:50:13;5.50;;;3.95;;
22539;SDS011;11436;50.860;4.334;2022-10-14T14:52:42;5.35;;;3.92;;
22539;SDS011;11436;50.860;4.334;2022-10-14T15:01:20;4.20;;;3.80;;
22539;SDS011;11436;50.860;4.334;2022-10-14T15:06:19;4.03;;;3.63;;
22539;SDS011;11436;50.860;4.334;2022-10-14T15:08:54;4.80;;;4.25;;
22539;SDS011;11436;50.860;4.334;2022-10-14T15:11:46;6.40;;;5.43;;
22539;SDS011;11436;50.860;4.334;2022-10-14T15:17:26;14.40;;;6.88;;
22539;SDS011;11436;50.860;4.334;2022-10-14T15:22:51;5.88;;;5.20;;
22539;SDS011;11436;50.860;4.334;2022-10-14T15:27:53;5.50;;;4.93;;
22539;SDS011;11436;50.860;4.334;2022-10-14T15:35:38;6.93;;;4.93;;
22539;SDS011;11436;50.860;4.334;2022-10-14T15:38:17;5.00;;;4.50;;
22539;SDS011;11436;50.860;4.334;2022-10-14T15:40:44;9.02;;;5.47;;
22539;SDS011;11436;50.860;4.334;2022-10-14T15:43:14;8.20;;;5.15;;
22539;SDS011;11436;50.860;4.334;2022-10-14T15:45:42;5.20;;;4.50;;
22539;SDS011;11436;50.860;4.334;2022-10-14T15:48:15;5.82;;;4.88;;
22539;SDS011;11436;50.860;4.334;2022-10-14T15:50:46;6.68;;;4.85;;
22539;SDS011;11436;50.860;4.334;2022-10-14T15:53:12;8.40;;;5.00;;
22539;SDS011;11436;50.860;4.334;2022-10-14T15:55:38;6.47;;;4.75;;
22539;SDS011;11436;50.860;4.334;2022-10-14T15:58:04;5.97;;;4.72;;
22539;SDS011;11436;50.860;4.334;2022-10-14T16:00:30;5.28;;;4.75;;
22539;SDS011;11436;50.860;4.334;2022-10-14T16:02:57;7.53;;;4.93;;
22539;SDS011;11436;50.860;4.334;2022-10-14T16:05:26;13.93;;;11.70;;
22539;SDS011;11436;50.860;4.334;2022-10-14T16:07:54;6.82;;;4.93;;
22539;SDS011;11436;50.860;4.334;2022-10-14T16:10:21;6.13;;;4.75;;
22539;SDS011;11436;50.860;4.334;2022-10-14T16:12:48;6.38;;;5.00;;
22539;SDS011;11436;50.860;4.334;2022-10-14T16:18:19;6.85;;;4.35;;
22539;SDS011;11436;50.860;4.334;2022-10-14T16:20:47;4.60;;;4.20;;
22539;SDS011;11436;50.860;4.334;2022-10-14T16:23:13;7.63;;;4.72;;
22539;SDS011;11436;50.860;4.334;2022-10-14T16:25:42;6.32;;;4.78;;
22539;SDS011;11436;50.860;4.334;2022-10-14T16:28:10;4.45;;;4.05;;
22539;SDS011;11436;50.860;4.334;2022-10-14T16:30:41;6.53;;;5.30;;
22539;SDS011;11436;50.860;4.334;2022-10-14T16:35:42;10.57;;;6.45;;
22539;SDS011;11436;50.860;4.334;2022-10-14T16:38:12;7.35;;;5.88;;
22539;SDS011;11436;50.860;4.334;2022-10-14T16:40:42;24.25;;;16.15;;
22539;SDS011;11436;50.860;4.334;2022-10-14T16:43:10;9.77;;;7.13;;
22539;SDS011;11436;50.860;4.334;2022-10-14T16:45:39;7.85;;;5.45;;
22539;SDS011;11436;50.860;4.334;2022-10-14T16:48:08;9.48;;;5.57;;
22539;SDS011;11436;50.860;4.334;2022-10-14T16:50:34;10.60;;;5.80;;
22539;SDS011;11436;50.860;4.334;2022-10-14T16:53:01;8.00;;;5.28;;
22539;SDS011;11436;50.860;4.334;2022-10-14T16:55:45;10.50;;;5.82;;
22539;SDS011;11436;50.860;4.334;2022-10-14T16:58:10;14.40;;;6.75;;
22539;SDS011;11436;50.860;4.334;2022-10-14T17:00:39;8.25;;;5.40;;
22539;SDS011;11436;50.860;4.334;2022-10-14T17:03:08;9.15;;;6.45;;
22539;SDS011;11436;50.860;4.334;2022-10-14T17:05:34;11.73;;;6.65;;
22539;SDS011;11436;50.860;4.334;2022-10-14T17:08:11;7.55;;;5.68;;
22539;SDS011;11436;50.860;4.334;2022-10-14T17:10:40;9.75;;;6.38;;
22539;SDS011;11436;50.860;4.334;2022-10-14T17:15:35;10.98;;;6.63;;
22539;SDS011;11436;50.860;4.334;2022-10-14T17:18:00;15.35;;;7.28;;
22539;SDS011;11436;50.860;4.334;2022-10-14T17:20:29;16.95;;;7.18;;
22539;SDS011;11436;50.860;4.334;2022-10-14T17:22:55;10.77;;;6.85;;
22539;SDS011;11436;50.860;4.334;2022-10-14T17:25:21;12.07;;;6.50;;
22539;SDS011;11436;50.860;4.334;2022-10-14T17:27:47;13.32;;;8.88;;
22539;SDS011;11436;50.860;4.334;2022-10-14T17:30:13;11.23;;;7.53;;
22539;SDS011;11436;50.860;4.334;2022-10-14T17:32:39;14.20;;;8.10;;
22539;SDS011;11436;50.860;4.334;2022-10-14T17:35:05;19.83;;;10.73;;
22539;SDS011;11436;50.860;4.334;2022-10-14T17:37:31;13.07;;;9.25;;
22539;SDS011;11436;50.860;4.334;2022-10-14T17:39:57;11.80;;;8.43;;
22539;SDS011;11436;50.860;4.334;2022-10-14T17:42:22;11.55;;;8.02;;
22539;SDS011;11436;50.860;4.334;2022-10-14T17:44:48;16.92;;;8.68;;